sensor_id;sensor_type;location;lat;lon;timestamp;pressure;altitude;pressure_sealevel;temperature;humidity
3260;BME280;22469;48.150;14.004;2022-12-29T00:00:55;98170.47;;;3.07;71.51
3260;BME280;22469;48.150;14.004;2022-12-29T00:03:22;98170.47;;;3.07;71.54
3260;BME280;22469;48.150;14.004;2022-12-29T00:05:56;98167.94;;;3.11;71.17
3260;BME280;22469;48.150;14.004;2022-12-29T00:08:25;98162.88;;;3.11;71.39
3260;BME280;22469;48.150;14.004;2022-12-29T00:11:11;98158.66;;;3.13;71.35
3260;BME280;22469;48.150;14.004;2022-12-29T00:13:43;98156.13;;;3.13;71.80
3260;BME280;22469;48.150;14.004;2022-12-29T00:16:30;98148.50;;;3.13;71.97
3260;BME280;22469;48.150;14.004;2022-12-29T00:18:58;98137.53;;;3.11;72.07
3260;BME280;22469;48.150;14.004;2022-12-29T00:21:27;98138.38;;;3.14;71.93
3260;BME280;22469;48.150;14.004;2022-12-29T00:24:15;98129.09;;;3.13;71.84
3260;BME280;22469;48.150;14.004;2022-12-29T00:29:48;98110.50;;;3.16;71.63
3260;BME280;22469;48.150;14.004;2022-12-29T00:32:34;98110.53;;;3.08;72.01
3260;BME280;22469;48.150;14.004;2022-12-29T00:37:55;98127.41;;;3.04;71.69
3260;BME280;22469;48.150;14.004;2022-12-29T00:40:43;98135.00;;;2.94;72.03
3260;BME280;22469;48.150;14.004;2022-12-29T00:43:29;98132.47;;;2.92;72.39
3260;BME280;22469;48.150;14.004;2022-12-29T00:46:14;98138.38;;;2.90;72.62
3260;BME280;22469;48.150;14.004;2022-12-29T00:48:45;98131.63;;;2.93;72.69
3260;BME280;22469;48.150;14.004;2022-12-29T00:51:31;98129.09;;;2.98;72.61
3260;BME280;22469;48.150;14.004;2022-12-29T00:53:58;98129.09;;;3.01;72.62
3260;BME280;22469;48.150;14.004;2022-12-29T00:56:25;98129.94;;;3.01;72.81
3260;BME280;22469;48.150;14.004;2022-12-29T00:58:52;98122.34;;;3.04;72.38
3260;BME280;22469;48.150;14.004;2022-12-29T01:01:19;98120.63;;;3.06;72.26
3260;BME280;22469;48.150;14.004;2022-12-29T01:03:47;98120.66;;;3.08;72.23
3260;BME280;22469;48.150;14.004;2022-12-29T01:06:14;98124.03;;;3.08;72.22
3260;BME280;22469;48.150;14.004;2022-12-29T01:08:41;98123.19;;;3.06;71.92
3260;BME280;22469;48.150;14.004;2022-12-29T01:11:10;98118.09;;;3.03;71.90
3260;BME280;22469;48.150;14.004;2022-12-29T01:13:39;98116.44;;;3.08;71.95
3260;BME280;22469;48.150;14.004;2022-12-29T01:16:07;98108.81;;;3.10;71.75
3260;BME280;22469;48.150;14.004;2022-12-29T01:18:35;98113.03;;;3.03;71.76
3260;BME280;22469;48.150;14.004;2022-12-29T01:21:06;98116.44;;;3.05;71.80
3260;BME280;22469;48.150;14.004;2022-12-29T01:23:33;98120.66;;;3.08;71.53
3260;BME280;22469;48.150;14.004;2022-12-29T01:26:11;98114.72;;;3.11;71.82
3260;BME280;22469;48.150;14.004;2022-12-29T01:28:40;98113.91;;;3.08;72.03
3260;BME280;22469;48.150;14.004;2022-12-29T01:31:09;98118.09;;;3.09;71.77
3260;BME280;22469;48.150;14.004;2022-12-29T01:33:37;98113.03;;;3.09;71.62
3260;BME280;22469;48.150;14.004;2022-12-29T01:36:06;98118.09;;;3.11;71.36
3260;BME280;22469;48.150;14.004;2022-12-29T01:38:36;98113.03;;;3.09;71.47
3260;BME280;22469;48.150;14.004;2022-12-29T01:41:06;98106.28;;;3.07;71.45
3260;BME280;22469;48.150;14.004;2022-12-29T01:43:48;98111.34;;;3.10;71.74
3260;BME280;22469;48.150;14.004;2022-12-29T01:51:46;98105.44;;;3.00;71.31
3260;BME280;22469;48.150;14.004;2022-12-29T01:54:43;98110.53;;;2.94;71.16
3260;BME280;22469;48.150;14.004;2022-12-29T01:57:20;98098.69;;;2.90;71.41
3260;BME280;22469;48.150;14.004;2022-12-29T02:00:04;98097.03;;;2.91;71.42
3260;BME280;22469;48.150;14.004;2022-12-29T02:02:36;98093.63;;;2.92;71.16
3260;BME280;22469;48.150;14.004;2022-12-29T02:05:08;98085.19;;;2.93;71.03
3260;BME280;22469;48.150;14.004;2022-12-29T02:07:39;98090.25;;;2.88;71.18
3260;BME280;22469;48.150;14.004;2022-12-29T02:10:07;98076.75;;;2.81;71.37
3260;BME280;22469;48.150;14.004;2022-12-29T02:12:35;98088.56;;;2.82;71.58
3260;BME280;22469;48.150;14.004;2022-12-29T02:15:03;98091.94;;;2.71;71.75
3260;BME280;22469;48.150;14.004;2022-12-29T02:23:59;98089.38;;;2.77;72.11
3260;BME280;22469;48.150;14.004;2022-12-29T02:32:01;98072.50;;;2.76;71.92
3260;BME280;22469;48.150;14.004;2022-12-29T02:34:55;98078.44;;;2.72;71.68
3260;BME280;22469;48.150;14.004;2022-12-29T02:37:42;98066.63;;;2.71;71.57
3260;BME280;22469;48.150;14.004;2022-12-29T02:46:23;98072.50;;;2.67;71.85
3260;BME280;22469;48.150;14.004;2022-12-29T02:49:08;98075.03;;;2.65;71.72
3260;BME280;22469;48.150;14.004;2022-12-29T02:51:58;98077.56;;;2.62;71.54
3260;BME280;22469;48.150;14.004;2022-12-29T02:54:28;98072.50;;;2.59;71.51
3260;BME280;22469;48.150;14.004;2022-12-29T02:57:30;98082.63;;;2.56;71.68
3260;BME280;22469;48.150;14.004;2022-12-29T03:00:07;98074.19;;;2.55;71.43
3260;BME280;22469;48.150;14.004;2022-12-29T03:05:53;98070.81;;;2.59;71.48
3260;BME280;22469;48.150;14.004;2022-12-29T03:11:27;98057.31;;;2.54;71.85
3260;BME280;22469;48.150;14.004;2022-12-29T03:14:32;98052.25;;;2.54;71.59
3260;BME280;22469;48.150;14.004;2022-12-29T03:18:02;98051.41;;;2.54;71.75
3260;BME280;22469;48.150;14.004;2022-12-29T03:20:41;98046.34;;;2.55;71.58
3260;BME280;22469;48.150;14.004;2022-12-29T03:23:13;98049.72;;;2.54;71.44
3260;BME280;22469;48.150;14.004;2022-12-29T03:25:44;98049.72;;;2.56;71.10
3260;BME280;22469;48.150;14.004;2022-12-29T03:28:38;98039.59;;;2.54;71.20
3260;BME280;22469;48.150;14.004;2022-12-29T03:31:12;98045.50;;;2.52;71.06
3260;BME280;22469;48.150;14.004;2022-12-29T03:33:41;98052.28;;;2.50;71.31
3260;BME280;22469;48.150;14.004;2022-12-29T03:36:16;98048.03;;;2.50;71.12
3260;BME280;22469;48.150;14.004;2022-12-29T03:38:51;98053.94;;;2.49;71.32
3260;BME280;22469;48.150;14.004;2022-12-29T03:41:27;98053.94;;;2.51;71.19
3260;BME280;22469;48.150;14.004;2022-12-29T03:43:57;98057.31;;;2.48;71.37
3260;BME280;22469;48.150;14.004;2022-12-29T03:46:24;98053.94;;;2.51;71.05
3260;BME280;22469;48.150;14.004;2022-12-29T03:48:51;98051.41;;;2.49;71.12
3260;BME280;22469;48.150;14.004;2022-12-29T03:51:18;98053.94;;;2.49;70.82
3260;BME280;22469;48.150;14.004;2022-12-29T03:53:45;98056.47;;;2.49;71.00
3260;BME280;22469;48.150;14.004;2022-12-29T03:56:12;98043.84;;;2.46;71.10
3260;BME280;22469;48.150;14.004;2022-12-29T03:58:39;98042.94;;;2.43;71.05
3260;BME280;22469;48.150;14.004;2022-12-29T04:01:06;98048.00;;;2.43;70.91
3260;BME280;22469;48.150;14.004;2022-12-29T04:03:33;98045.50;;;2.40;71.11
3260;BME280;22469;48.150;14.004;2022-12-29T04:06:01;98048.88;;;2.42;71.00
3260;BME280;22469;48.150;14.004;2022-12-29T04:08:28;98048.88;;;2.42;70.92
3260;BME280;22469;48.150;14.004;2022-12-29T04:10:55;98047.19;;;2.36;71.11
3260;BME280;22469;48.150;14.004;2022-12-29T04:13:22;98045.50;;;2.38;70.98
3260;BME280;22469;48.150;14.004;2022-12-29T04:15:50;98047.16;;;2.39;71.47
3260;BME280;22469;48.150;14.004;2022-12-29T04:18:18;98047.19;;;2.42;71.62
3260;BME280;22469;48.150;14.004;2022-12-29T04:20:45;98050.53;;;2.43;71.85
3260;BME280;22469;48.150;14.004;2022-12-29T04:23:28;98052.25;;;2.42;71.93
3260;BME280;22469;48.150;14.004;2022-12-29T04:25:57;98053.06;;;2.43;71.94
3260;BME280;22469;48.150;14.004;2022-12-29T04:28:24;98048.03;;;2.40;71.81
3260;BME280;22469;48.150;14.004;2022-12-29T04:30:51;98053.09;;;2.38;72.07
3260;BME280;22469;48.150;14.004;2022-12-29T04:33:18;98061.50;;;2.31;72.15
3260;BME280;22469;48.150;14.004;2022-12-29T04:35:47;98054.75;;;2.31;72.13
3260;BME280;22469;48.150;14.004;2022-12-29T04:38:14;98057.25;;;2.22;72.39
3260;BME280;22469;48.150;14.004;2022-12-29T04:40:44;98058.13;;;2.23;72.50
3260;BME280;22469;48.150;14.004;2022-12-29T04:43:12;98061.50;;;2.23;72.11
3260;BME280;22469;48.150;14.004;2022-12-29T04:45:45;98058.13;;;2.20;72.52
3260;BME280;22469;48.150;14.004;2022-12-29T04:48:14;98062.34;;;2.16;72.82
3260;BME280;22469;48.150;14.004;2022-12-29T04:50:41;98064.00;;;2.17;72.81
3260;BME280;22469;48.150;14.004;2022-12-29T04:53:09;98065.69;;;2.13;72.75
3260;BME280;22469;48.150;14.004;2022-12-29T04:55:36;98072.44;;;2.10;72.77
3260;BME280;22469;48.150;14.004;2022-12-29T04:58:03;98063.19;;;2.12;72.73
3260;BME280;22469;48.150;14.004;2022-12-29T05:00:30;98070.72;;;2.07;73.19
3260;BME280;22469;48.150;14.004;2022-12-29T05:02:57;98065.69;;;2.09;73.22
3260;BME280;22469;48.150;14.004;2022-12-29T05:05:26;98074.94;;;2.11;73.29
3260;BME280;22469;48.150;14.004;2022-12-29T05:07:52;98074.94;;;2.11;73.46
3260;BME280;22469;48.150;14.004;2022-12-29T05:10:19;98087.59;;;2.07;73.68
3260;BME280;22469;48.150;14.004;2022-12-29T05:12:47;98076.63;;;2.08;73.82
3260;BME280;22469;48.150;14.004;2022-12-29T05:15:14;98079.16;;;2.08;74.32
3260;BME280;22469;48.150;14.004;2022-12-29T05:17:41;98082.53;;;2.11;73.48
3260;BME280;22469;48.150;14.004;2022-12-29T05:20:08;98079.19;;;2.14;74.02
3260;BME280;22469;48.150;14.004;2022-12-29T05:22:36;98087.63;;;2.18;73.92
3260;BME280;22469;48.150;14.004;2022-12-29T05:25:03;98078.34;;;2.15;74.02
3260;BME280;22469;48.150;14.004;2022-12-29T05:27:31;98081.72;;;2.16;74.39
3260;BME280;22469;48.150;14.004;2022-12-29T05:29:59;98065.69;;;2.18;74.01
3260;BME280;22469;48.150;14.004;2022-12-29T05:32:26;98058.94;;;2.22;73.82
3260;BME280;22469;48.150;14.004;2022-12-29T05:34:53;98059.81;;;2.25;74.11
3260;BME280;22469;48.150;14.004;2022-12-29T05:37:20;98058.13;;;2.24;74.17
3260;BME280;22469;48.150;14.004;2022-12-29T05:39:47;98048.84;;;2.25;74.23
3260;BME280;22469;48.150;14.004;2022-12-29T05:42:14;98041.25;;;2.28;74.64
3260;BME280;22469;48.150;14.004;2022-12-29T05:44:42;98047.16;;;2.25;74.05
3260;BME280;22469;48.150;14.004;2022-12-29T05:47:09;98028.63;;;2.23;74.23
3260;BME280;22469;48.150;14.004;2022-12-29T05:49:36;98037.88;;;2.17;74.21
3260;BME280;22469;48.150;14.004;2022-12-29T05:52:04;98032.81;;;2.13;74.04
3260;BME280;22469;48.150;14.004;2022-12-29T05:54:30;98034.47;;;2.14;73.92
3260;BME280;22469;48.150;14.004;2022-12-29T05:56:58;98035.34;;;2.13;73.62
3260;BME280;22469;48.150;14.004;2022-12-29T05:59:24;98029.41;;;2.11;73.75
3260;BME280;22469;48.150;14.004;2022-12-29T06:01:51;98027.72;;;2.07;73.55
3260;BME280;22469;48.150;14.004;2022-12-29T06:04:19;98035.28;;;1.97;73.33
3260;BME280;22469;48.150;14.004;2022-12-29T06:06:46;98027.69;;;1.90;73.51
3260;BME280;22469;48.150;14.004;2022-12-29T06:09:13;98024.31;;;1.95;73.66
3260;BME280;22469;48.150;14.004;2022-12-29T06:11:40;98039.50;;;1.88;73.09
3260;BME280;22469;48.150;14.004;2022-12-29T06:14:08;98037.81;;;1.86;73.61
3260;BME280;22469;48.150;14.004;2022-12-29T06:16:35;98036.94;;;1.82;73.88
3260;BME280;22469;48.150;14.004;2022-12-29T06:19:03;98041.97;;;1.81;73.70
3260;BME280;22469;48.150;14.004;2022-12-29T06:21:30;98047.88;;;1.77;73.58
3260;BME280;22469;48.150;14.004;2022-12-29T06:23:57;98048.69;;;1.65;74.17
3260;BME280;22469;48.150;14.004;2022-12-29T06:26:24;98039.41;;;1.70;73.89
3260;BME280;22469;48.150;14.004;2022-12-29T06:28:51;98050.41;;;1.72;73.92
3260;BME280;22469;48.150;14.004;2022-12-29T06:31:18;98043.66;;;1.73;73.97
3260;BME280;22469;48.150;14.004;2022-12-29T06:33:45;98041.16;;;1.79;73.82
3260;BME280;22469;48.150;14.004;2022-12-29T06:36:15;98051.28;;;1.82;74.16
3260;BME280;22469;48.150;14.004;2022-12-29T06:38:43;98046.22;;;1.82;73.85
3260;BME280;22469;48.150;14.004;2022-12-29T06:41:10;98045.38;;;1.86;74.09
3260;BME280;22469;48.150;14.004;2022-12-29T06:43:37;98040.38;;;1.95;74.06
3260;BME280;22469;48.150;14.004;2022-12-29T06:46:05;98047.91;;;1.90;74.30
3260;BME280;22469;48.150;14.004;2022-12-29T06:48:32;98052.91;;;1.68;75.29
3260;BME280;22469;48.150;14.004;2022-12-29T06:50:59;98046.22;;;1.82;74.86
3260;BME280;22469;48.150;14.004;2022-12-29T06:53:26;98072.34;;;1.82;75.11
3260;BME280;22469;48.150;14.004;2022-12-29T06:55:53;98055.47;;;1.84;75.26
3260;BME280;22469;48.150;14.004;2022-12-29T06:58:20;98046.25;;;1.97;74.76
3260;BME280;22469;48.150;14.004;2022-12-29T07:00:47;98053.03;;;2.07;74.91
3260;BME280;22469;48.150;14.004;2022-12-29T07:03:15;98044.63;;;2.13;75.13
3260;BME280;22469;48.150;14.004;2022-12-29T07:05:42;98029.44;;;2.16;75.06
3260;BME280;22469;48.150;14.004;2022-12-29T07:08:09;98057.22;;;1.98;75.46
3260;BME280;22469;48.150;14.004;2022-12-29T07:10:36;98028.56;;;1.96;76.10
3260;BME280;22469;48.150;14.004;2022-12-29T07:13:04;98038.69;;;2.11;75.41
3260;BME280;22469;48.150;14.004;2022-12-29T07:15:31;98046.22;;;1.85;76.39
3260;BME280;22469;48.150;14.004;2022-12-29T07:17:58;98025.16;;;1.90;76.56
3260;BME280;22469;48.150;14.004;2022-12-29T07:20:25;98031.13;;;2.12;76.29
3260;BME280;22469;48.150;14.004;2022-12-29T07:22:53;98025.25;;;2.27;75.72
3260;BME280;22469;48.150;14.004;2022-12-29T07:25:20;98025.25;;;2.36;75.46
3260;BME280;22469;48.150;14.004;2022-12-29T07:27:47;98025.25;;;2.47;75.44
3260;BME280;22469;48.150;14.004;2022-12-29T07:30:15;98033.69;;;2.51;75.20
3260;BME280;22469;48.150;14.004;2022-12-29T07:32:43;98028.63;;;2.54;75.15
3260;BME280;22469;48.150;14.004;2022-12-29T07:35:10;98037.91;;;2.59;74.83
3260;BME280;22469;48.150;14.004;2022-12-29T07:37:37;98038.75;;;2.66;74.65
3260;BME280;22469;48.150;14.004;2022-12-29T07:40:04;98026.09;;;2.74;74.54
3260;BME280;22469;48.150;14.004;2022-12-29T07:42:32;98025.25;;;2.76;74.68
3260;BME280;22469;48.150;14.004;2022-12-29T07:44:59;98033.69;;;2.81;74.67
3260;BME280;22469;48.150;14.004;2022-12-29T07:47:26;98025.22;;;2.87;74.69
3260;BME280;22469;48.150;14.004;2022-12-29T07:49:53;98026.06;;;2.94;74.78
3260;BME280;22469;48.150;14.004;2022-12-29T07:52:20;98027.78;;;3.01;74.75
3260;BME280;22469;48.150;14.004;2022-12-29T07:54:48;98044.63;;;3.11;74.38
3260;BME280;22469;48.150;14.004;2022-12-29T07:57:15;98047.16;;;3.16;74.45
3260;BME280;22469;48.150;14.004;2022-12-29T07:59:42;98048.81;;;3.26;74.40
3260;BME280;22469;48.150;14.004;2022-12-29T08:02:10;98053.00;;;3.41;74.41
3260;BME280;22469;48.150;14.004;2022-12-29T08:04:40;98052.13;;;3.54;74.22
3260;BME280;22469;48.150;14.004;2022-12-29T08:07:07;98044.47;;;3.62;73.95
3260;BME280;22469;48.150;14.004;2022-12-29T08:09:34;98047.00;;;3.68;73.64
3260;BME280;22469;48.150;14.004;2022-12-29T08:12:02;98048.66;;;3.72;73.99
3260;BME280;22469;48.150;14.004;2022-12-29T08:14:29;98057.19;;;3.54;73.86
3260;BME280;22469;48.150;14.004;2022-12-29T08:16:56;98058.81;;;3.69;74.02
3260;BME280;22469;48.150;14.004;2022-12-29T08:19:22;98045.25;;;3.82;74.02
3260;BME280;22469;48.150;14.004;2022-12-29T08:21:49;98057.13;;;3.77;73.55
3260;BME280;22469;48.150;14.004;2022-12-29T08:24:17;98052.84;;;3.88;73.73
3260;BME280;22469;48.150;14.004;2022-12-29T08:26:44;98060.41;;;3.94;73.54
3260;BME280;22469;48.150;14.004;2022-12-29T08:29:12;98054.44;;;4.00;73.42
3260;BME280;22469;48.150;14.004;2022-12-29T08:31:39;98061.25;;;4.01;73.59
3260;BME280;22469;48.150;14.004;2022-12-29T08:34:06;98043.41;;;4.09;74.15
3260;BME280;22469;48.150;14.004;2022-12-29T08:36:33;98046.75;;;4.18;73.85
3260;BME280;22469;48.150;14.004;2022-12-29T08:39:00;98035.72;;;4.25;72.97
3260;BME280;22469;48.150;14.004;2022-12-29T08:41:27;98054.38;;;4.17;73.18
3260;BME280;22469;48.150;14.004;2022-12-29T08:43:54;98040.81;;;4.24;73.45
3260;BME280;22469;48.150;14.004;2022-12-29T08:46:21;98041.59;;;4.31;73.31
3260;BME280;22469;48.150;14.004;2022-12-29T08:48:49;98045.00;;;4.31;73.21
3260;BME280;22469;48.150;14.004;2022-12-29T08:51:16;98055.06;;;4.45;73.29
3260;BME280;22469;48.150;14.004;2022-12-29T08:53:49;98059.25;;;4.47;73.02
3260;BME280;22469;48.150;14.004;2022-12-29T08:56:17;98052.47;;;4.53;73.43
3260;BME280;22469;48.150;14.004;2022-12-29T08:58:45;98055.75;;;4.64;73.63
3260;BME280;22469;48.150;14.004;2022-12-29T09:01:12;98050.69;;;4.61;73.54
3260;BME280;22469;48.150;14.004;2022-12-29T09:03:39;98088.88;;;4.50;73.73
3260;BME280;22469;48.150;14.004;2022-12-29T09:06:26;98073.56;;;4.58;73.72
3260;BME280;22469;48.150;14.004;2022-12-29T09:08:54;98072.75;;;4.59;73.71
3260;BME280;22469;48.150;14.004;2022-12-29T09:11:23;98059.13;;;4.64;73.62
3260;BME280;22469;48.150;14.004;2022-12-29T09:13:52;98059.03;;;4.75;73.65
3260;BME280;22469;48.150;14.004;2022-12-29T09:16:22;98057.31;;;4.80;73.68
3260;BME280;22469;48.150;14.004;2022-12-29T09:18:50;98067.41;;;4.88;73.43
3260;BME280;22469;48.150;14.004;2022-12-29T09:21:17;98064.91;;;4.83;73.20
3260;BME280;22469;48.150;14.004;2022-12-29T09:23:44;98062.31;;;4.92;73.22
3260;BME280;22469;48.150;14.004;2022-12-29T09:26:11;98060.53;;;4.99;73.34
3260;BME280;22469;48.150;14.004;2022-12-29T09:28:38;98071.53;;;5.04;72.99
3260;BME280;22469;48.150;14.004;2022-12-29T09:31:06;98066.34;;;5.12;73.42
3260;BME280;22469;48.150;14.004;2022-12-29T09:33:34;98065.50;;;5.14;73.26
3260;BME280;22469;48.150;14.004;2022-12-29T09:36:01;98063.72;;;5.24;73.04
3260;BME280;22469;48.150;14.004;2022-12-29T09:38:29;98048.41;;;5.30;73.00
3260;BME280;22469;48.150;14.004;2022-12-29T09:41:07;98050.81;;;5.41;73.13
3260;BME280;22469;48.150;14.004;2022-12-29T09:44:03;98038.00;;;5.49;73.23
3260;BME280;22469;48.150;14.004;2022-12-29T09:46:44;98047.28;;;5.53;73.24
3260;BME280;22469;48.150;14.004;2022-12-29T09:49:38;98042.16;;;5.56;73.01
3260;BME280;22469;48.150;14.004;2022-12-29T09:52:13;98037.03;;;5.60;73.14
3260;BME280;22469;48.150;14.004;2022-12-29T09:55:02;98031.91;;;5.63;73.24
3260;BME280;22469;48.150;14.004;2022-12-29T10:00:48;98024.31;;;5.62;72.59
3260;BME280;22469;48.150;14.004;2022-12-29T10:03:24;98019.03;;;5.74;72.76
3260;BME280;22469;48.150;14.004;2022-12-29T10:06:10;98024.50;;;5.45;73.33
3260;BME280;22469;48.150;14.004;2022-12-29T10:23:28;97995.84;;;6.02;72.01
3260;BME280;22469;48.150;14.004;2022-12-29T10:26:01;97992.28;;;6.10;71.89
3260;BME280;22469;48.150;14.004;2022-12-29T10:31:36;98000.69;;;6.17;71.40
3260;BME280;22469;48.150;14.004;2022-12-29T10:34:24;98013.31;;;6.26;70.83
3260;BME280;22469;48.150;14.004;2022-12-29T10:37:00;98000.53;;;6.29;70.99
3260;BME280;22469;48.150;14.004;2022-12-29T10:39:50;98010.63;;;6.34;70.70
3260;BME280;22469;48.150;14.004;2022-12-29T10:44:56;98005.53;;;6.34;71.08
3260;BME280;22469;48.150;14.004;2022-12-29T10:47:29;98002.84;;;6.43;71.10
3260;BME280;22469;48.150;14.004;2022-12-29T10:50:01;98004.34;;;6.55;69.93
3260;BME280;22469;48.150;14.004;2022-12-29T10:52:29;97994.97;;;6.58;69.92
3260;BME280;22469;48.150;14.004;2022-12-29T10:55:02;97985.38;;;6.74;70.47
3260;BME280;22469;48.150;14.004;2022-12-29T10:57:41;97987.63;;;6.91;70.66
3260;BME280;22469;48.150;14.004;2022-12-29T11:00:16;97992.41;;;7.08;70.31
3260;BME280;22469;48.150;14.004;2022-12-29T11:05:58;97990.59;;;7.13;69.89
3260;BME280;22469;48.150;14.004;2022-12-29T11:08:39;97991.44;;;7.15;68.89
3260;BME280;22469;48.150;14.004;2022-12-29T11:11:23;97998.16;;;7.18;68.78
3260;BME280;22469;48.150;14.004;2022-12-29T11:14:08;97996.53;;;7.15;68.56
3260;BME280;22469;48.150;14.004;2022-12-29T11:16:40;97986.91;;;7.28;69.08
3260;BME280;22469;48.150;14.004;2022-12-29T11:19:22;97986.81;;;7.34;68.31
3260;BME280;22469;48.150;14.004;2022-12-29T11:21:52;97970.56;;;7.40;69.06
3260;BME280;22469;48.150;14.004;2022-12-29T11:24:26;97982.47;;;7.38;68.22
3260;BME280;22469;48.150;14.004;2022-12-29T11:27:25;97960.97;;;7.51;69.02
3260;BME280;22469;48.150;14.004;2022-12-29T11:29:54;97964.22;;;7.57;68.21
3260;BME280;22469;48.150;14.004;2022-12-29T11:32:27;97950.41;;;7.68;68.69
3260;BME280;22469;48.150;14.004;2022-12-29T11:34:57;97946.00;;;7.74;67.98
3260;BME280;22469;48.150;14.004;2022-12-29T11:37:32;97940.69;;;7.83;67.34
3260;BME280;22469;48.150;14.004;2022-12-29T11:40:19;97935.31;;;7.96;67.53
3260;BME280;22469;48.150;14.004;2022-12-29T11:45:20;97953.75;;;8.08;66.22
3260;BME280;22469;48.150;14.004;2022-12-29T11:47:59;97936.44;;;8.20;66.54
3260;BME280;22469;48.150;14.004;2022-12-29T11:50:31;97930.28;;;8.28;66.45
3260;BME280;22469;48.150;14.004;2022-12-29T11:53:07;97922.41;;;8.39;66.97
3260;BME280;22469;48.150;14.004;2022-12-29T11:56:37;97915.38;;;8.47;65.66
3260;BME280;22469;48.150;14.004;2022-12-29T12:08:05;97898.31;;;8.82;64.56
3260;BME280;22469;48.150;14.004;2022-12-29T12:10:54;97893.84;;;8.89;63.61
3260;BME280;22469;48.150;14.004;2022-12-29T12:13:58;97898.09;;;8.90;62.63
3260;BME280;22469;48.150;14.004;2022-12-29T12:16:40;97889.44;;;8.94;63.11
3260;BME280;22469;48.150;14.004;2022-12-29T12:22:00;97888.47;;;8.98;62.01
3260;BME280;22469;48.150;14.004;2022-12-29T12:24:46;97888.47;;;8.98;62.13
3260;BME280;22469;48.150;14.004;2022-12-29T12:30:24;97887.56;;;9.00;62.88
3260;BME280;22469;48.150;14.004;2022-12-29T12:33:18;97862.06;;;8.97;62.83
3260;BME280;22469;48.150;14.004;2022-12-29T12:48:17;97861.34;;;9.22;62.97
3260;BME280;22469;48.150;14.004;2022-12-29T12:51:58;97862.00;;;9.30;61.96
3260;BME280;22469;48.150;14.004;2022-12-29T12:55:02;97860.88;;;9.39;61.48
3260;BME280;22469;48.150;14.004;2022-12-29T13:07:07;97869.78;;;9.55;60.06
3260;BME280;22469;48.150;14.004;2022-12-29T13:16:09;97882.34;;;9.63;58.74
3260;BME280;22469;48.150;14.004;2022-12-29T13:18:55;97884.00;;;9.64;58.31
3260;BME280;22469;48.150;14.004;2022-12-29T13:21:37;97875.47;;;9.65;58.54
3260;BME280;22469;48.150;14.004;2022-12-29T13:24:45;97870.28;;;9.66;57.77
3260;BME280;22469;48.150;14.004;2022-12-29T13:27:56;97888.03;;;9.72;58.31
3260;BME280;22469;48.150;14.004;2022-12-29T13:31:12;97865.81;;;9.73;57.52
3260;BME280;22469;48.150;14.004;2022-12-29T13:36:27;97884.00;;;9.36;58.62
3260;BME280;22469;48.150;14.004;2022-12-29T13:39:21;97880.09;;;9.52;58.45
3260;BME280;22469;48.150;14.004;2022-12-29T13:41:55;97872.59;;;9.46;58.90
3260;BME280;22469;48.150;14.004;2022-12-29T13:44:36;97861.53;;;9.45;59.31
3260;BME280;22469;48.150;14.004;2022-12-29T13:47:26;97870.66;;;9.54;58.70
3260;BME280;22469;48.150;14.004;2022-12-29T13:49:57;97868.09;;;9.54;58.38
3260;BME280;22469;48.150;14.004;2022-12-29T13:58:12;97870.09;;;9.44;58.86
3260;BME280;22469;48.150;14.004;2022-12-29T14:03:56;97882.06;;;9.44;58.73
3260;BME280;22469;48.150;14.004;2022-12-29T14:06:28;97886.16;;;9.49;58.28
3260;BME280;22469;48.150;14.004;2022-12-29T14:08:58;97881.66;;;9.58;58.22
3260;BME280;22469;48.150;14.004;2022-12-29T14:11:32;97885.72;;;9.65;58.40
3260;BME280;22469;48.150;14.004;2022-12-29T14:14:22;97894.16;;;9.67;59.65
3260;BME280;22469;48.150;14.004;2022-12-29T14:16:52;97895.97;;;9.63;59.44
3260;BME280;22469;48.150;14.004;2022-12-29T14:19:24;97891.69;;;9.64;59.33
3260;BME280;22469;48.150;14.004;2022-12-29T14:21:56;97894.25;;;9.64;59.67
3260;BME280;22469;48.150;14.004;2022-12-29T14:34:48;97896.28;;;9.23;61.08
3260;BME280;22469;48.150;14.004;2022-12-29T14:37:36;97883.50;;;9.23;60.69
3260;BME280;22469;48.150;14.004;2022-12-29T14:40:23;97895.38;;;9.25;61.05
3260;BME280;22469;48.150;14.004;2022-12-29T14:42:56;97894.69;;;9.20;61.62
3260;BME280;22469;48.150;14.004;2022-12-29T14:45:28;97899.91;;;9.16;61.32
3260;BME280;22469;48.150;14.004;2022-12-29T14:47:59;97888.22;;;9.07;61.49
3260;BME280;22469;48.150;14.004;2022-12-29T14:50:42;97900.50;;;8.96;61.73
3260;BME280;22469;48.150;14.004;2022-12-29T14:53:49;97894.56;;;8.94;62.01
3260;BME280;22469;48.150;14.004;2022-12-29T14:56:20;97904.19;;;8.84;62.31
3260;BME280;22469;48.150;14.004;2022-12-29T14:59:01;97901.78;;;8.80;62.33
3260;BME280;22469;48.150;14.004;2022-12-29T15:04:27;97894.94;;;8.80;63.06
3260;BME280;22469;48.150;14.004;2022-12-29T15:06:59;97894.41;;;8.67;63.34
3260;BME280;22469;48.150;14.004;2022-12-29T15:09:34;97893.66;;;8.64;63.30
3260;BME280;22469;48.150;14.004;2022-12-29T15:14:54;97894.81;;;8.52;63.72
3260;BME280;22469;48.150;14.004;2022-12-29T15:19:59;97899.50;;;8.33;64.21
3260;BME280;22469;48.150;14.004;2022-12-29T15:22:28;97901.44;;;8.25;64.49
3260;BME280;22469;48.150;14.004;2022-12-29T15:24:55;97889.97;;;8.05;65.27
3260;BME280;22469;48.150;14.004;2022-12-29T15:27:26;97895.28;;;7.96;65.46
3260;BME280;22469;48.150;14.004;2022-12-29T15:30:02;97899.97;;;7.77;66.71
3260;BME280;22469;48.150;14.004;2022-12-29T15:32:40;97894.81;;;7.80;66.55
3260;BME280;22469;48.150;14.004;2022-12-29T15:35:26;97904.44;;;7.69;66.46
3260;BME280;22469;48.150;14.004;2022-12-29T15:37:57;97891.75;;;7.66;66.44
3260;BME280;22469;48.150;14.004;2022-12-29T15:40:31;97879.88;;;7.62;66.41
3260;BME280;22469;48.150;14.004;2022-12-29T15:45:32;97886.84;;;7.55;66.70
3260;BME280;22469;48.150;14.004;2022-12-29T15:48:03;97896.38;;;7.49;67.08
3260;BME280;22469;48.150;14.004;2022-12-29T15:50:32;97893.06;;;7.44;66.85
3260;BME280;22469;48.150;14.004;2022-12-29T15:53:02;97889.63;;;7.46;66.63
3260;BME280;22469;48.150;14.004;2022-12-29T15:58:04;97886.41;;;7.36;66.73
3260;BME280;22469;48.150;14.004;2022-12-29T16:00:34;97903.72;;;7.21;67.45
3260;BME280;22469;48.150;14.004;2022-12-29T16:03:05;97901.22;;;7.19;67.42
3260;BME280;22469;48.150;14.004;2022-12-29T16:05:38;97904.78;;;7.12;67.70